Ana Sayfa
METAR-TAF:

METAR-TAF

Havaalanları :

Newport State Airport

Newport, Rhode Island, Amerika Birleşik Devletleri

Enlem: 41-31-48N, Boylam: 071-17-01W, yükseklik: 52 m

Güncel hava durumu gözlemi

Rapor saat 03:53 UTC de 9 dakika önce yapıldı.
Rüzgar kuzeybatıdan 16 kt ve 23 kt'a kadar ani rüzgarlar
Sıcaklık -1°C
Nem 46%
Basınç 1011 hPa
Görüş mesafesi: 16.1 km
9000 ft yükseklikte çok bulutlu

METAR: KUUU 200353Z AUTO 31016G23KT 10SM OVC090 M01/M11 A2985 RMK AO2 PK WND 32027/0312 SLP110 T10111106 $

Saat: 23:02 (04:02 UTC)


TAF: eksik

4.000'den fazla havaalanı için hava durumu gözlemleri ve tahminleri (METAR ve TAF raporları).

Kullanılabilir istasyonlar harita üzerinde sarı ve kırmızı noktalarla gösterilir.

İstasyonun adını görmek için fareyi noktanın üzerinde gezdirin.

Sonrasında hava gözlem ve tahminlerini görmek için tıklayın.

Haritayı değiştirmek için: yaklaştırmak için siyah artı işaretli yeşil düğmeye ve uzaklaştırmak için de eksi işaretli düğmeye hızla tıklayın; bitişik haritalar için yeşil okları kullanın.


METAR-TAF: